createdAt,value
2022-11-09T00:00:00.782Z,75.62
2022-11-09T00:01:06.325Z,75.57
2022-11-09T00:02:07.926Z,75.47
2022-11-09T00:03:10.523Z,75.82
2022-11-09T00:04:12.161Z,75.61
2022-11-09T00:05:14.632Z,75.65
2022-11-09T00:06:16.157Z,75.81
2022-11-09T00:07:18.659Z,75.84
2022-11-09T00:08:20.250Z,75.82
2022-11-09T00:09:23.918Z,75.68
2022-11-09T00:10:25.519Z,75.61
2022-11-09T00:11:28.060Z,76.01
2022-11-09T00:12:30.959Z,75.88
2022-11-09T00:13:36.550Z,75.80
2022-11-09T00:14:38.826Z,76.03
2022-11-09T00:15:41.337Z,75.94
2022-11-09T00:16:44.415Z,76.17
2022-11-09T00:17:45.979Z,76.17
2022-11-09T00:18:48.526Z,76.18
2022-11-09T00:19:52.093Z,76.09
2022-11-09T00:20:55.224Z,76.27
2022-11-09T00:21:56.741Z,76.26
2022-11-09T00:22:59.481Z,76.29
2022-11-09T00:24:01.048Z,76.49
2022-11-09T00:25:03.546Z,76.23
2022-11-09T00:26:07.113Z,76.34
2022-11-09T00:27:11.873Z,76.63
2022-11-09T00:28:16.972Z,76.71
2022-11-09T00:29:19.516Z,76.57
2022-11-09T00:30:21.223Z,76.41
2022-11-09T00:31:25.378Z,76.66
2022-11-09T00:32:28.064Z,76.62
2022-11-09T00:33:30.816Z,76.92
2022-11-09T00:34:33.333Z,76.67
2022-11-09T00:35:37.986Z,76.83
2022-11-09T00:36:40.861Z,76.94
2022-11-09T00:37:42.986Z,76.83
2022-11-09T00:38:49.932Z,76.92
2022-11-09T00:39:51.494Z,76.85
2022-11-09T00:40:54.019Z,77.14
2022-11-09T00:41:55.591Z,77.09
2022-11-09T00:42:58.106Z,77.23
2022-11-09T00:44:02.003Z,76.92
2022-11-09T00:45:04.849Z,77.06
2022-11-09T00:46:07.361Z,76.88
2022-11-09T00:47:09.101Z,76.97
2022-11-09T00:48:11.627Z,76.77
2022-11-09T00:49:13.181Z,76.94
2022-11-09T00:50:16.045Z,76.90
2022-11-09T00:51:18.925Z,77.10
2022-11-09T00:52:21.495Z,76.91
2022-11-09T00:53:24.370Z,77.11
2022-11-09T00:54:26.874Z,76.78
2022-11-09T00:55:28.403Z,76.69
2022-11-09T00:56:31.068Z,76.82
2022-11-09T00:57:32.593Z,76.64
2022-11-09T00:58:36.746Z,76.77
2022-11-09T00:59:39.656Z,76.81
2022-11-09T01:00:42.173Z,76.62
2022-11-09T01:01:43.742Z,76.57
2022-11-09T01:02:46.243Z,76.61
2022-11-09T01:03:49.068Z,76.27
2022-11-09T01:04:51.193Z,76.62
2022-11-09T01:05:54.181Z,76.53
2022-11-09T01:06:55.796Z,76.54
2022-11-09T01:07:58.340Z,76.22
2022-11-09T01:08:59.855Z,76.39
2022-11-09T01:10:02.503Z,76.12
2022-11-09T01:11:06.190Z,76.20
2022-11-09T01:12:08.700Z,76.30
2022-11-09T01:13:11.766Z,76.07
2022-11-09T01:14:14.349Z,76.22
2022-11-09T01:15:17.465Z,76.05
2022-11-09T01:16:23.375Z,76.23
2022-11-09T01:17:25.334Z,75.86
2022-11-09T01:18:27.917Z,76.07
2022-11-09T01:19:29.465Z,75.84
2022-11-09T01:20:32.036Z,76.05
2022-11-09T01:21:34.521Z,75.93
2022-11-09T01:22:36.018Z,75.96
2022-11-09T01:23:40.244Z,75.87
2022-11-09T01:24:41.938Z,76.11
2022-11-09T01:25:45.177Z,75.99
2022-11-09T01:26:46.661Z,75.85
2022-11-09T01:27:49.132Z,75.90
2022-11-09T01:28:51.679Z,75.70
2022-11-09T01:29:53.244Z,75.75
2022-11-09T01:30:57.207Z,75.89
2022-11-09T01:31:59.735Z,75.75
2022-11-09T01:33:03.127Z,76.06
2022-11-09T01:34:05.701Z,76.04
2022-11-09T01:35:07.973Z,75.89
2022-11-09T01:36:12.754Z,75.81
2022-11-09T01:37:14.276Z,75.71
2022-11-09T01:38:16.766Z,75.89
2022-11-09T01:39:19.874Z,75.95
2022-11-09T01:40:22.469Z,76.03
2022-11-09T01:41:26.243Z,75.95
2022-11-09T01:42:30.599Z,75.87
2022-11-09T01:43:32.344Z,76.03
2022-11-09T01:44:38.739Z,75.73
2022-11-09T01:45:40.944Z,75.84
2022-11-09T01:46:50.678Z,75.90
2022-11-09T01:47:56.897Z,75.92
2022-11-09T01:49:02.874Z,75.70
2022-11-09T01:50:04.896Z,75.82
2022-11-09T01:51:13.511Z,75.87
2022-11-09T01:52:20.456Z,75.87
2022-11-09T01:53:28.670Z,75.93
2022-11-09T01:54:36.459Z,75.88
2022-11-09T01:55:38.209Z,75.77
2022-11-09T01:56:42.035Z,75.91
2022-11-09T01:57:49.664Z,76.05
2022-11-09T01:58:57.791Z,75.83
2022-11-09T02:00:07.396Z,75.98
2022-11-09T02:01:11.445Z,76.13
2022-11-09T02:02:14.708Z,76.10
2022-11-09T02:03:22.438Z,76.22
2022-11-09T02:04:29.768Z,76.15
2022-11-09T02:05:35.464Z,76.10
2022-11-09T02:06:37.057Z,76.32
2022-11-09T02:07:42.319Z,76.55
2022-11-09T02:08:46.166Z,76.40
2022-11-09T02:09:54.649Z,76.26
2022-11-09T02:11:04.395Z,76.19
2022-11-09T02:12:08.226Z,76.35
2022-11-09T02:13:12.601Z,76.23
2022-11-09T02:14:15.862Z,76.19
2022-11-09T02:15:18.871Z,76.13
2022-11-09T02:16:21.730Z,76.33
2022-11-09T02:17:26.297Z,76.44
2022-11-09T02:18:29.648Z,76.33
2022-11-09T02:19:31.623Z,76.19
2022-11-09T02:20:47.178Z,76.22
2022-11-09T02:21:48.929Z,76.18
2022-11-09T02:22:52.111Z,76.54
2022-11-09T02:23:54.794Z,76.33
2022-11-09T02:24:57.313Z,76.32
2022-11-09T02:26:04.586Z,76.41
2022-11-09T02:27:07.188Z,76.11
2022-11-09T02:28:09.655Z,76.01
2022-11-09T02:29:14.226Z,76.21
2022-11-09T02:30:17.425Z,76.11
2022-11-09T02:31:20.068Z,76.13
2022-11-09T02:32:28.631Z,76.19
2022-11-09T02:33:30.222Z,76.09
2022-11-09T02:34:32.750Z,76.06
2022-11-09T02:35:34.335Z,75.97
2022-11-09T02:36:38.446Z,76.22
2022-11-09T02:37:45.103Z,76.01
2022-11-09T02:38:47.560Z,76.13
2022-11-09T02:39:49.102Z,75.88
2022-11-09T02:40:53.450Z,75.84
2022-11-09T02:42:02.952Z,75.83
2022-11-09T02:43:07.665Z,75.87
2022-11-09T02:44:10.640Z,75.82
2022-11-09T02:45:12.300Z,75.86
2022-11-09T02:46:14.924Z,75.70
2022-11-09T02:47:16.519Z,75.82
2022-11-09T02:48:19.098Z,75.57
2022-11-09T02:49:20.683Z,75.74
2022-11-09T02:50:23.206Z,75.50
2022-11-09T02:51:24.809Z,75.39
2022-11-09T02:52:29.642Z,75.54
2022-11-09T02:53:31.876Z,75.72
2022-11-09T02:54:34.828Z,75.61
2022-11-09T02:55:36.506Z,75.47
2022-11-09T02:56:39.054Z,75.43
2022-11-09T02:57:40.686Z,75.34
2022-11-09T02:58:43.143Z,75.20
2022-11-09T02:59:44.707Z,75.21
2022-11-09T03:00:47.284Z,75.06
2022-11-09T03:01:48.927Z,74.97
2022-11-09T03:02:51.407Z,74.82
2022-11-09T03:03:53.276Z,74.72
2022-11-09T03:04:55.798Z,74.70
2022-11-09T03:05:57.365Z,74.78
2022-11-09T03:06:59.898Z,74.79
2022-11-09T03:08:02.864Z,74.72
2022-11-09T03:09:07.034Z,75.05
2022-11-09T03:10:09.644Z,74.77
2022-11-09T03:11:12.154Z,74.61
2022-11-09T03:12:31.853Z,74.88
2022-11-09T03:13:34.908Z,74.83
2022-11-09T03:14:36.419Z,74.58
2022-11-09T03:15:39.466Z,74.67
2022-11-09T03:16:41.100Z,74.63
2022-11-09T03:17:44.080Z,74.92
2022-11-09T03:18:45.586Z,74.89
2022-11-09T03:19:48.170Z,74.48
2022-11-09T03:20:49.783Z,74.67
2022-11-09T03:21:52.278Z,74.52
2022-11-09T03:22:57.740Z,74.37
2022-11-09T03:24:01.652Z,74.58
2022-11-09T03:25:03.488Z,74.73
2022-11-09T03:26:06.430Z,74.47
2022-11-09T03:27:07.990Z,74.58
2022-11-09T03:28:10.920Z,74.66
2022-11-09T03:29:12.547Z,74.41
2022-11-09T03:30:15.096Z,74.62
2022-11-09T03:31:19.270Z,74.44
2022-11-09T03:32:21.772Z,74.41
2022-11-09T03:33:23.455Z,74.39
2022-11-09T03:34:25.948Z,74.69
2022-11-09T03:35:28.505Z,74.58
2022-11-09T03:36:30.133Z,74.45
2022-11-09T03:37:32.631Z,74.43
2022-11-09T03:38:34.868Z,74.48
2022-11-09T03:39:38.648Z,74.39
2022-11-09T03:40:40.271Z,74.43
2022-11-09T03:41:42.758Z,74.46
2022-11-09T03:42:45.297Z,74.35
2022-11-09T03:43:47.773Z,74.38
2022-11-09T03:44:49.337Z,74.27
2022-11-09T03:45:51.806Z,74.54
2022-11-09T03:46:53.346Z,74.18
2022-11-09T03:47:59.917Z,74.22
2022-11-09T03:49:01.721Z,74.32
2022-11-09T03:50:05.040Z,74.16
2022-11-09T03:51:06.576Z,74.08
2022-11-09T03:52:09.090Z,74.38
2022-11-09T03:53:11.412Z,74.25
2022-11-09T03:54:14.023Z,74.45
2022-11-09T03:55:16.989Z,74.45
2022-11-09T03:56:20.292Z,74.33
2022-11-09T03:57:21.855Z,74.32
2022-11-09T03:58:24.434Z,74.37
2022-11-09T03:59:26.053Z,74.33
2022-11-09T04:00:29.026Z,74.33
2022-11-09T04:01:30.762Z,74.21
2022-11-09T04:02:33.411Z,74.32
2022-11-09T04:03:34.933Z,74.33
2022-11-09T04:04:37.406Z,74.29
2022-11-09T04:05:39.002Z,74.46
2022-11-09T04:06:41.563Z,74.35
2022-11-09T04:07:47.849Z,74.42
2022-11-09T04:08:51.711Z,74.20
2022-11-09T04:09:53.411Z,74.47
2022-11-09T04:10:57.547Z,74.17
2022-11-09T04:11:59.106Z,74.26
2022-11-09T04:13:01.763Z,74.13
2022-11-09T04:14:03.341Z,74.31
2022-11-09T04:15:06.884Z,74.28
2022-11-09T04:16:08.406Z,74.17
2022-11-09T04:17:11.303Z,74.21
2022-11-09T04:18:14.828Z,74.18
2022-11-09T04:19:17.426Z,74.11
2022-11-09T04:20:19.038Z,74.28
2022-11-09T04:21:24.092Z,74.16
2022-11-09T04:22:25.804Z,74.16
2022-11-09T04:23:28.381Z,74.33
2022-11-09T04:24:30.934Z,74.21
2022-11-09T04:25:34.836Z,74.28
2022-11-09T04:26:39.501Z,74.20
2022-11-09T04:27:41.059Z,74.15
2022-11-09T04:28:43.503Z,74.36
2022-11-09T04:29:45.066Z,74.48
2022-11-09T04:30:47.646Z,74.27
2022-11-09T04:31:49.913Z,74.31
2022-11-09T04:32:52.427Z,74.27
2022-11-09T04:33:54.116Z,74.35
2022-11-09T04:34:56.606Z,74.35
2022-11-09T04:36:02.374Z,74.17
2022-11-09T04:37:05.151Z,74.37
2022-11-09T04:38:11.181Z,74.32
2022-11-09T04:39:14.063Z,74.22
2022-11-09T04:40:16.105Z,74.30
2022-11-09T04:41:18.680Z,74.45
2022-11-09T04:42:21.555Z,74.39
2022-11-09T04:43:24.038Z,74.44
2022-11-09T04:44:25.579Z,74.24
2022-11-09T04:45:28.290Z,74.33
2022-11-09T04:46:30.837Z,74.56
2022-11-09T04:47:32.399Z,74.57
2022-11-09T04:48:35.275Z,74.65
2022-11-09T04:49:37.103Z,74.76
2022-11-09T04:50:39.947Z,74.71
2022-11-09T04:51:41.663Z,74.64
2022-11-09T04:52:44.313Z,74.71
2022-11-09T04:53:45.990Z,74.62
2022-11-09T04:54:48.586Z,74.62
2022-11-09T04:55:51.479Z,74.75
2022-11-09T04:56:54.859Z,74.65
2022-11-09T04:57:57.794Z,74.70
2022-11-09T04:59:00.391Z,74.79
2022-11-09T05:00:02.098Z,75.08
2022-11-09T05:01:11.690Z,75.06
2022-11-09T05:02:13.199Z,75.11
2022-11-09T05:03:15.996Z,75.11
2022-11-09T05:04:17.816Z,75.23
2022-11-09T05:05:20.432Z,75.29
2022-11-09T05:06:34.566Z,75.18
2022-11-09T05:07:37.845Z,75.50
2022-11-09T05:08:39.370Z,75.41
2022-11-09T05:09:41.862Z,75.21
2022-11-09T05:10:43.364Z,75.39
2022-11-09T05:11:45.834Z,75.19
2022-11-09T05:12:47.383Z,75.17
2022-11-09T05:13:51.688Z,75.32
2022-11-09T05:14:54.296Z,75.15
2022-11-09T05:15:55.828Z,75.34
2022-11-09T05:16:58.352Z,75.20
2022-11-09T05:18:01.522Z,75.28
2022-11-09T05:19:04.652Z,75.37
2022-11-09T05:20:08.409Z,75.28
2022-11-09T05:21:10.918Z,75.53
2022-11-09T05:22:30.803Z,75.54
2022-11-09T05:23:56.357Z,75.38
2022-11-09T05:24:58.912Z,75.49
2022-11-09T05:26:01.422Z,75.62
2022-11-09T05:27:04.923Z,75.34
2022-11-09T05:28:09.496Z,75.36
2022-11-09T05:29:14.291Z,75.35
2022-11-09T05:30:15.961Z,75.34
2022-11-09T05:31:18.494Z,75.50
2022-11-09T05:32:21.078Z,75.49
2022-11-09T05:33:22.932Z,75.38
2022-11-09T05:34:25.756Z,75.54
2022-11-09T05:35:27.372Z,75.56
2022-11-09T05:36:31.511Z,75.22
2022-11-09T05:37:33.119Z,75.46
2022-11-09T05:38:35.592Z,75.30
2022-11-09T05:39:37.126Z,75.65
2022-11-09T05:40:39.697Z,75.51
2022-11-09T05:41:41.213Z,75.52
2022-11-09T05:42:44.338Z,75.49
2022-11-09T05:43:46.590Z,75.62
2022-11-09T05:44:50.551Z,75.64
2022-11-09T05:45:52.228Z,75.50
2022-11-09T05:46:54.742Z,75.68
2022-11-09T05:47:56.359Z,75.88
2022-11-09T05:48:58.861Z,75.88
2022-11-09T05:50:00.454Z,76.01
2022-11-09T05:51:03.542Z,76.18
2022-11-09T05:52:05.571Z,76.44
2022-11-09T05:53:08.285Z,76.31
2022-11-09T05:54:10.036Z,76.26
2022-11-09T05:55:12.567Z,76.50
2022-11-09T05:56:16.226Z,76.89
2022-11-09T05:57:17.713Z,76.57
2022-11-09T05:58:20.192Z,76.54
2022-11-09T05:59:21.770Z,76.73
2022-11-09T06:00:26.017Z,76.75
2022-11-09T06:01:28.508Z,76.70
2022-11-09T06:02:31.201Z,76.69
2022-11-09T06:03:34.019Z,76.43
2022-11-09T06:04:36.544Z,76.69
2022-11-09T06:05:39.746Z,76.68
2022-11-09T06:06:44.151Z,76.69
2022-11-09T06:07:45.820Z,76.38
2022-11-09T06:08:48.297Z,76.48
2022-11-09T06:09:50.258Z,76.29
2022-11-09T06:10:59.206Z,76.38
2022-11-09T06:12:00.776Z,76.25
2022-11-09T06:13:03.943Z,76.56
2022-11-09T06:14:05.491Z,76.43
2022-11-09T06:15:09.024Z,76.53
2022-11-09T06:16:12.054Z,76.45
2022-11-09T06:17:14.561Z,76.29
2022-11-09T06:18:17.091Z,76.22
2022-11-09T06:19:18.666Z,76.30
2022-11-09T06:20:21.761Z,76.53
2022-11-09T06:21:24.404Z,76.36
2022-11-09T06:22:26.033Z,76.21
2022-11-09T06:23:30.199Z,76.25
2022-11-09T06:24:31.919Z,76.10
2022-11-09T06:25:34.407Z,76.23
2022-11-09T06:26:36.052Z,76.21
2022-11-09T06:27:38.581Z,76.24
2022-11-09T06:28:41.245Z,76.09
2022-11-09T06:29:43.785Z,76.14
2022-11-09T06:30:45.444Z,76.13
2022-11-09T06:31:51.246Z,75.98
2022-11-09T06:32:59.149Z,76.28
2022-11-09T06:34:01.711Z,75.92
2022-11-09T06:35:03.799Z,76.18
2022-11-09T06:36:06.834Z,76.23
2022-11-09T06:37:08.489Z,76.07
2022-11-09T06:38:11.680Z,75.83
2022-11-09T06:39:13.272Z,76.17
2022-11-09T06:40:15.915Z,76.14
2022-11-09T06:41:19.037Z,76.17
2022-11-09T06:42:20.568Z,76.14
2022-11-09T06:43:23.784Z,76.16
2022-11-09T06:44:26.325Z,76.04
2022-11-09T06:45:28.830Z,76.12
2022-11-09T06:46:31.494Z,76.03
2022-11-09T06:47:34.415Z,76.19
2022-11-09T06:48:37.113Z,75.97
2022-11-09T06:49:38.907Z,76.07
2022-11-09T06:50:41.818Z,76.00
2022-11-09T06:51:43.550Z,76.23
2022-11-09T06:52:46.440Z,75.97
2022-11-09T06:53:48.125Z,76.09
2022-11-09T06:54:50.961Z,76.21
2022-11-09T06:55:53.964Z,76.30
2022-11-09T06:56:56.552Z,76.04
2022-11-09T06:57:58.985Z,76.32
2022-11-09T06:59:01.620Z,76.23
2022-11-09T07:00:05.144Z,76.16
2022-11-09T07:01:12.209Z,76.05
2022-11-09T07:02:16.584Z,75.91
2022-11-09T07:03:22.871Z,76.30
2022-11-09T07:04:24.707Z,75.98
2022-11-09T07:05:27.372Z,76.04
2022-11-09T07:06:29.066Z,76.18
2022-11-09T07:07:32.408Z,76.04
2022-11-09T07:08:35.362Z,75.94
2022-11-09T07:09:37.929Z,76.05
2022-11-09T07:10:40.233Z,75.99
2022-11-09T07:11:42.758Z,75.84
2022-11-09T07:12:44.443Z,75.81
2022-11-09T07:13:52.274Z,76.02
2022-11-09T07:14:56.464Z,75.99
2022-11-09T07:15:59.014Z,75.78
2022-11-09T07:17:00.635Z,76.10
2022-11-09T07:18:05.399Z,75.79
2022-11-09T07:19:09.372Z,75.96
2022-11-09T07:20:11.974Z,75.93
2022-11-09T07:21:15.333Z,76.03
2022-11-09T07:22:16.978Z,76.04
2022-11-09T07:23:20.088Z,76.05
2022-11-09T07:24:22.278Z,76.24
2022-11-09T07:25:27.141Z,76.28
2022-11-09T07:26:28.713Z,76.19
2022-11-09T07:27:31.309Z,76.05
2022-11-09T07:28:34.109Z,76.22
2022-11-09T07:29:36.658Z,76.31
2022-11-09T07:30:38.878Z,76.16
2022-11-09T07:31:41.361Z,76.31
2022-11-09T07:34:05.613Z,76.39
2022-11-09T07:35:09.853Z,76.42
2022-11-09T07:36:14.610Z,76.52
2022-11-09T07:37:19.924Z,76.59
2022-11-09T07:38:22.446Z,76.51
2022-11-09T07:39:24.011Z,76.29
2022-11-09T07:40:26.587Z,76.56
2022-11-09T07:41:34.349Z,76.66
2022-11-09T07:42:36.362Z,76.63
2022-11-09T07:43:38.939Z,76.66
2022-11-09T07:44:40.578Z,76.53
2022-11-09T07:45:43.146Z,76.66
2022-11-09T07:46:46.218Z,76.87
2022-11-09T07:47:48.752Z,76.88
2022-11-09T07:48:51.344Z,76.60
2022-11-09T07:49:54.024Z,76.64
2022-11-09T07:51:01.632Z,77.01
2022-11-09T07:52:03.586Z,76.63
2022-11-09T07:53:07.997Z,76.86
2022-11-09T07:54:13.544Z,77.00
2022-11-09T07:55:16.252Z,77.07
2022-11-09T07:56:18.819Z,77.08
2022-11-09T07:57:22.668Z,77.09
2022-11-09T07:58:24.448Z,77.21
2022-11-09T07:59:26.984Z,77.56
2022-11-09T08:00:30.495Z,77.42
2022-11-09T08:01:33.235Z,77.12
2022-11-09T08:02:35.158Z,77.24
2022-11-09T08:03:37.951Z,77.39
2022-11-09T08:04:39.597Z,77.35
2022-11-09T08:05:42.329Z,77.26
2022-11-09T08:06:46.425Z,77.32
2022-11-09T08:07:48.039Z,77.15
2022-11-09T08:08:50.778Z,77.49
2022-11-09T08:09:52.638Z,77.31
2022-11-09T08:10:57.915Z,77.32
2022-11-09T08:11:59.523Z,77.25
2022-11-09T08:13:04.456Z,77.38
2022-11-09T08:14:05.999Z,77.48
2022-11-09T08:15:10.690Z,77.48
2022-11-09T08:16:13.385Z,77.36
2022-11-09T08:17:15.079Z,77.61
2022-11-09T08:18:20.729Z,77.57
2022-11-09T08:19:22.499Z,77.39
2022-11-09T08:20:25.019Z,77.56
2022-11-09T08:21:26.649Z,77.51
2022-11-09T08:22:30.483Z,77.59
2022-11-09T08:23:33.041Z,77.60
2022-11-09T08:24:35.688Z,77.66
2022-11-09T08:25:37.378Z,77.87
2022-11-09T08:26:39.940Z,77.56
2022-11-09T08:27:41.684Z,77.64
2022-11-09T08:28:44.167Z,77.70
2022-11-09T08:29:45.804Z,77.77
2022-11-09T08:30:56.933Z,77.62
2022-11-09T08:31:59.467Z,77.56
2022-11-09T08:33:03.557Z,77.82
2022-11-09T08:34:06.143Z,77.93
2022-11-09T08:35:10.176Z,77.88
2022-11-09T08:36:16.349Z,77.78
2022-11-09T08:37:19.299Z,77.62
2022-11-09T08:38:23.934Z,77.77
2022-11-09T08:39:26.754Z,77.75
2022-11-09T08:40:29.627Z,77.61
2022-11-09T08:41:32.141Z,77.63
2022-11-09T08:42:33.780Z,77.52
2022-11-09T08:43:36.540Z,77.40
2022-11-09T08:44:38.107Z,77.52
2022-11-09T08:45:42.026Z,77.31
2022-11-09T08:46:44.601Z,77.55
2022-11-09T08:47:47.601Z,77.18
2022-11-09T08:48:50.103Z,77.25
2022-11-09T08:49:51.601Z,77.13
2022-11-09T08:50:55.200Z,77.38
2022-11-09T08:51:57.708Z,77.34
2022-11-09T08:53:01.364Z,77.17
2022-11-09T08:54:05.596Z,77.38
2022-11-09T08:55:09.360Z,77.21
2022-11-09T08:56:12.848Z,77.18
2022-11-09T08:57:14.649Z,76.92
2022-11-09T08:58:17.483Z,76.99
2022-11-09T08:59:20.220Z,76.92
2022-11-09T09:00:22.367Z,76.92
2022-11-09T09:01:25.204Z,76.73
2022-11-09T09:02:26.891Z,76.69
2022-11-09T09:03:30.657Z,76.31
2022-11-09T09:04:32.322Z,76.26
2022-11-09T09:05:36.097Z,76.33
2022-11-09T09:06:37.761Z,76.32
2022-11-09T09:07:40.419Z,76.10
2022-11-09T09:08:43.007Z,76.16
2022-11-09T09:09:45.962Z,76.03
2022-11-09T09:10:48.713Z,75.78
2022-11-09T09:11:51.250Z,75.71
2022-11-09T09:12:54.100Z,75.60
2022-11-09T09:13:55.695Z,75.36
2022-11-09T09:14:58.261Z,75.34
2022-11-09T09:16:10.192Z,75.12
2022-11-09T09:17:12.972Z,74.97
2022-11-09T09:18:15.704Z,74.71
2022-11-09T09:19:18.062Z,74.40
2022-11-09T09:20:20.738Z,74.31
2022-11-09T09:21:23.319Z,74.08
2022-11-09T09:22:24.830Z,73.93
2022-11-09T09:23:27.381Z,73.70
2022-11-09T09:24:30.040Z,73.78
2022-11-09T09:25:34.022Z,73.46
2022-11-09T09:26:35.845Z,73.29
2022-11-09T09:27:38.794Z,73.18
2022-11-09T09:28:41.379Z,73.10
2022-11-09T09:29:43.988Z,72.87
2022-11-09T09:30:46.555Z,73.16
2022-11-09T09:31:49.192Z,72.93
2022-11-09T09:32:51.770Z,72.72
2022-11-09T09:33:53.420Z,72.53
2022-11-09T09:34:56.126Z,72.67
2022-11-09T09:35:59.911Z,72.23
2022-11-09T09:37:02.596Z,72.29
2022-11-09T09:38:05.202Z,72.13
2022-11-09T09:39:07.757Z,72.01
2022-11-09T09:40:24.673Z,71.79
2022-11-09T09:41:37.072Z,71.58
2022-11-09T09:42:45.173Z,71.43
2022-11-09T09:43:50.270Z,71.28
2022-11-09T09:44:57.796Z,71.25
2022-11-09T09:46:03.232Z,71.22
2022-11-09T09:47:13.096Z,70.93
2022-11-09T09:48:25.945Z,71.07
2022-11-09T09:49:31.901Z,70.95
2022-11-09T09:50:41.784Z,71.12
2022-11-09T09:51:49.615Z,70.77
2022-11-09T09:53:23.249Z,70.70
2022-11-09T09:54:23.310Z,70.60
2022-11-09T09:55:31.136Z,70.55
2022-11-09T09:56:39.280Z,70.67
2022-11-09T09:57:44.360Z,70.61
2022-11-09T09:58:51.383Z,70.25
2022-11-09T09:59:57.511Z,70.20
2022-11-09T10:01:05.730Z,70.01
2022-11-09T10:02:18.806Z,69.89
2022-11-09T10:03:22.378Z,69.84
2022-11-09T10:04:29.661Z,69.49
2022-11-09T10:05:47.266Z,69.31
2022-11-09T10:07:07.818Z,69.03
2022-11-09T10:08:16.233Z,69.08
2022-11-09T10:09:28.523Z,68.66
2022-11-09T10:10:44.385Z,68.57
2022-11-09T10:12:00.977Z,68.40
2022-11-09T10:13:23.216Z,68.47
2022-11-09T10:14:51.014Z,68.29
2022-11-09T10:15:59.635Z,68.32
2022-11-09T10:17:12.142Z,68.32
2022-11-09T10:18:26.772Z,68.09
2022-11-09T10:19:41.788Z,68.01
2022-11-09T10:21:10.899Z,68.11
2022-11-09T10:22:20.878Z,67.81
2022-11-09T10:23:45.670Z,67.50
2022-11-09T10:26:22.490Z,67.70
2022-11-09T10:27:36.223Z,68.03
2022-11-09T10:29:13.949Z,67.88
2022-11-09T10:30:14.996Z,67.87
2022-11-09T10:31:20.841Z,67.76
2022-11-09T10:32:24.730Z,67.81
2022-11-09T10:33:29.322Z,67.88
2022-11-09T10:34:39.088Z,67.63
2022-11-09T10:35:46.327Z,67.79
2022-11-09T10:36:57.685Z,67.64
2022-11-09T10:38:00.219Z,67.70
2022-11-09T10:39:02.841Z,67.63
2022-11-09T10:40:16.778Z,67.38
2022-11-09T10:41:28.744Z,67.56
2022-11-09T10:42:32.618Z,67.36
2022-11-09T10:43:34.247Z,67.51
2022-11-09T10:44:36.945Z,67.38
2022-11-09T10:45:41.729Z,67.31
2022-11-09T10:47:04.554Z,67.30
2022-11-09T10:48:08.874Z,67.15
2022-11-09T10:49:20.967Z,67.25
2022-11-09T10:50:28.759Z,67.13
2022-11-09T10:51:39.743Z,67.08
2022-11-09T10:52:47.314Z,66.96
2022-11-09T10:54:11.987Z,67.12
2022-11-09T10:55:23.665Z,67.09
2022-11-09T10:56:32.944Z,66.71
2022-11-09T10:57:52.014Z,67.12
2022-11-09T10:58:54.856Z,66.81
2022-11-09T10:59:59.135Z,66.55
2022-11-09T11:01:04.279Z,66.60
2022-11-09T11:02:52.622Z,66.63
2022-11-09T11:03:57.339Z,66.65
2022-11-09T11:05:22.278Z,66.57
2022-11-09T11:06:31.295Z,66.68
2022-11-09T11:07:34.260Z,66.44
2022-11-09T11:08:39.854Z,66.53
2022-11-09T11:09:41.394Z,66.29
2022-11-09T11:10:43.920Z,66.04
2022-11-09T11:11:46.740Z,66.01
2022-11-09T11:13:18.845Z,65.88
2022-11-09T11:14:27.851Z,65.82
2022-11-09T11:15:37.171Z,66.03
2022-11-09T11:16:41.361Z,65.90
2022-11-09T11:17:42.932Z,66.06
2022-11-09T11:18:47.874Z,65.97
2022-11-09T11:19:50.546Z,65.80
2022-11-09T11:21:08.425Z,65.69
2022-11-09T11:22:22.787Z,65.57
2022-11-09T11:23:27.010Z,65.45
2022-11-09T11:24:42.744Z,65.52
2022-11-09T11:26:01.873Z,65.50
2022-11-09T11:27:11.268Z,65.32
2022-11-09T11:28:22.736Z,65.14
2022-11-09T11:29:38.381Z,65.31
2022-11-09T11:30:40.903Z,65.18
2022-11-09T11:31:43.430Z,65.28
2022-11-09T11:32:50.395Z,65.19
2022-11-09T11:33:53.540Z,64.93
2022-11-09T11:35:00.629Z,65.14
2022-11-09T11:36:15.232Z,64.98
2022-11-09T11:37:31.128Z,64.86
2022-11-09T11:38:38.923Z,64.88
2022-11-09T11:39:57.140Z,64.80
2022-11-09T11:41:20.647Z,64.70
2022-11-09T11:42:42.764Z,64.57
2022-11-09T11:43:54.132Z,64.26
2022-11-09T11:45:38.989Z,64.35
2022-11-09T11:46:48.059Z,64.10
2022-11-09T11:48:03.963Z,64.13
2022-11-09T11:49:28.287Z,63.86
2022-11-09T11:50:41.919Z,63.52
2022-11-09T11:51:52.986Z,63.54
2022-11-09T11:53:09.703Z,63.75
2022-11-09T11:54:20.881Z,63.43
2022-11-09T11:55:38.941Z,63.63
2022-11-09T11:56:46.694Z,63.63
2022-11-09T11:58:00.850Z,63.64
2022-11-09T11:59:23.521Z,63.58
2022-11-09T12:00:26.339Z,63.42
2022-11-09T12:01:45.269Z,63.28
2022-11-09T12:03:32.377Z,63.35
2022-11-09T12:04:55.389Z,62.86
2022-11-09T12:06:34.869Z,62.64
2022-11-09T12:07:43.105Z,62.54
2022-11-09T12:09:04.073Z,62.53
2022-11-09T12:10:32.788Z,62.37
2022-11-09T12:11:47.476Z,62.16
2022-11-09T12:13:01.379Z,62.05
2022-11-09T12:14:19.835Z,61.98
2022-11-09T12:15:31.129Z,61.76
2022-11-09T12:16:40.732Z,61.58
2022-11-09T12:17:49.735Z,61.88
2022-11-09T12:19:01.786Z,61.38
2022-11-09T12:20:20.181Z,61.35
2022-11-09T12:21:29.818Z,61.26
2022-11-09T12:22:41.588Z,61.17
2022-11-09T12:24:09.570Z,61.08
2022-11-09T12:25:17.985Z,60.85
2022-11-09T12:26:30.903Z,60.73
2022-11-09T12:27:47.097Z,60.52
2022-11-09T12:29:01.619Z,60.54
2022-11-09T12:30:12.756Z,60.34
2022-11-09T12:31:29.948Z,60.33
2022-11-09T12:32:42.834Z,60.01
2022-11-09T12:33:51.734Z,60.00
2022-11-09T12:35:04.375Z,59.87
2022-11-09T12:36:13.365Z,60.03
2022-11-09T12:37:21.158Z,60.19
2022-11-09T12:38:28.819Z,60.22
2022-11-09T12:39:36.053Z,60.19
2022-11-09T12:40:44.847Z,60.26
2022-11-09T12:41:48.829Z,60.23
2022-11-09T12:42:57.061Z,60.32
2022-11-09T12:44:05.022Z,60.26
2022-11-09T12:45:27.285Z,60.09
2022-11-09T12:46:34.964Z,60.21
2022-11-09T12:47:42.495Z,60.07
2022-11-09T12:48:46.789Z,60.00
2022-11-09T12:49:49.345Z,60.19
2022-11-09T12:50:54.699Z,60.22
2022-11-09T12:51:59.022Z,60.16
2022-11-09T12:53:05.101Z,60.12
2022-11-09T12:54:11.590Z,60.12
2022-11-09T12:55:16.019Z,60.27
2022-11-09T12:56:23.581Z,60.03
2022-11-09T12:57:28.493Z,60.02
2022-11-09T12:58:33.811Z,60.15
2022-11-09T12:59:45.704Z,60.18
2022-11-09T13:00:53.000Z,60.03
2022-11-09T13:01:57.496Z,59.96
2022-11-09T13:03:02.808Z,59.97
2022-11-09T13:04:06.014Z,59.86
2022-11-09T13:05:26.580Z,59.83
2022-11-09T13:06:30.701Z,59.76
2022-11-09T13:07:50.334Z,59.77
2022-11-09T13:09:02.443Z,59.79
2022-11-09T13:10:04.683Z,59.69
2022-11-09T13:11:19.816Z,59.74
2022-11-09T13:12:34.001Z,59.73
2022-11-09T13:13:36.768Z,59.88
2022-11-09T13:14:39.785Z,59.92
2022-11-09T13:16:11.069Z,60.04
2022-11-09T13:17:54.516Z,60.08
2022-11-09T13:18:57.534Z,60.23
2022-11-09T13:19:59.950Z,60.19
2022-11-09T13:21:38.184Z,60.30
2022-11-09T13:23:01.478Z,60.38
2022-11-09T13:24:49.453Z,60.45
2022-11-09T13:25:55.466Z,60.42
2022-11-09T13:27:02.272Z,60.05
2022-11-09T13:28:04.068Z,60.16
2022-11-09T13:29:22.087Z,60.27
2022-11-09T13:30:52.330Z,60.03
2022-11-09T13:32:24.490Z,60.23
2022-11-09T13:33:28.272Z,60.12
2022-11-09T13:34:42.469Z,60.17
2022-11-09T13:36:00.956Z,60.32
2022-11-09T13:37:49.097Z,60.24
2022-11-09T13:39:29.834Z,60.28
2022-11-09T13:40:48.271Z,60.41
2022-11-09T13:41:50.953Z,60.42
2022-11-09T13:42:59.095Z,60.45
2022-11-09T13:44:15.189Z,60.58
2022-11-09T13:45:29.728Z,60.46
2022-11-09T13:46:39.015Z,60.41
2022-11-09T13:47:50.134Z,60.59
2022-11-09T13:48:54.019Z,60.46
2022-11-09T13:49:56.710Z,60.53
2022-11-09T13:51:00.583Z,60.38
2022-11-09T13:52:03.301Z,60.45
2022-11-09T13:53:29.555Z,60.47
2022-11-09T13:54:34.211Z,60.33
2022-11-09T13:55:38.727Z,60.31
2022-11-09T13:56:41.073Z,60.27
2022-11-09T13:57:46.444Z,60.25
2022-11-09T13:58:51.732Z,60.24
2022-11-09T13:59:58.842Z,60.31
2022-11-09T14:01:01.383Z,60.22
2022-11-09T14:02:04.365Z,60.18
2022-11-09T14:03:18.774Z,60.04
2022-11-09T14:04:24.031Z,59.93
2022-11-09T14:05:28.474Z,59.97
2022-11-09T14:06:31.977Z,59.91
2022-11-09T14:07:36.744Z,59.89
2022-11-09T14:08:41.628Z,59.84